Time;durP1;ratioP1;P1;durP2;ratioP2;P2;SDS_P1;SDS_P2;PMS_P1;PMS_P2;Temp;Humidity;BMP_temperature;BMP_pressure;BME280_temperature;BME280_humidity;BME280_pressure;Samples;Min_cycle;Max_cycle;Signal;HPM_P1;HPM_P2
2022/03/08 00:01:28;;;;;;;18.70;10.23;;;;;;;4.14;42.78;101370.63;5064510;28;20263;-64
2022/03/08 00:03:56;;;;;;;22.60;11.83;;;;;;;4.38;42.30;101367.59;5065896;28;20204;-65
2022/03/08 00:06:24;;;;;;;23.50;11.77;;;;;;;4.59;42.00;101374.22;5067173;28;20626;-64
2022/03/08 00:08:54;;;;;;;17.77;10.90;;;;;;;4.60;42.37;101372.47;5067611;28;20371;-64
2022/03/08 00:11:22;;;;;;;23.23;11.43;;;;;;;4.41;43.05;101368.25;5065353;28;20227;-64
2022/03/08 00:13:51;;;;;;;20.07;11.97;;;;;;;4.53;42.98;101366.72;5064691;28;20584;-64
2022/03/08 00:16:19;;;;;;;25.33;12.17;;;;;;;4.24;43.87;101373.59;5064897;28;20211;-65
2022/03/08 00:18:48;;;;;;;18.67;11.87;;;;;;;4.11;44.35;101359.50;5064564;28;20258;-64
2022/03/08 00:21:17;;;;;;;19.10;12.10;;;;;;;4.03;44.42;101364.31;5063194;28;20226;-65
2022/03/08 00:23:45;;;;;;;26.17;13.13;;;;;;;4.32;43.82;101367.91;5066596;28;20216;-64
2022/03/08 00:26:12;;;;;;;25.47;12.60;;;;;;;4.36;43.96;101370.31;5064632;28;20504;-64
2022/03/08 00:28:40;;;;;;;20.93;12.37;;;;;;;4.04;44.45;101366.84;5064737;28;20222;-65
2022/03/08 00:31:09;;;;;;;24.13;12.63;;;;;;;4.11;44.55;101370.84;5066947;28;20212;-65
2022/03/08 00:33:37;;;;;;;24.77;12.00;;;;;;;4.20;44.25;101364.22;5064782;28;20219;-65
2022/03/08 00:36:06;;;;;;;22.77;11.50;;;;;;;4.02;44.64;101366.09;5066030;28;20218;-65
2022/03/08 00:38:34;;;;;;;19.23;11.33;;;;;;;4.13;44.35;101362.88;5065389;28;20244;-65
2022/03/08 00:41:03;;;;;;;20.67;11.47;;;;;;;4.31;43.79;101363.63;5062396;28;20300;-65
2022/03/08 00:43:30;;;;;;;20.67;11.33;;;;;;;4.10;44.69;101369.13;5066133;28;20209;-65
2022/03/08 00:46:00;;;;;;;19.93;11.10;;;;;;;4.20;44.47;101352.88;5065444;28;20247;-65
2022/03/08 00:48:30;;;;;;;21.83;10.93;;;;;;;4.19;44.85;101354.66;5065529;28;20215;-65
2022/03/08 00:50:58;;;;;;;19.50;11.67;;;;;;;4.11;44.98;101352.47;5066359;28;20403;-65
2022/03/08 00:53:26;;;;;;;20.33;11.10;;;;;;;4.04;44.31;101358.13;5064251;28;20634;-65
2022/03/08 00:55:54;;;;;;;18.67;11.17;;;;;;;4.30;44.17;101356.69;5064045;28;20222;-65
2022/03/08 00:58:22;;;;;;;19.83;10.57;;;;;;;4.13;44.26;101341.88;5066878;28;20215;-65
2022/03/08 01:00:50;;;;;;;22.13;11.07;;;;;;;4.24;44.42;101354.38;5065848;28;20203;-65
2022/03/08 01:03:18;;;;;;;18.97;10.73;;;;;;;4.14;44.38;101344.41;5063486;28;20262;-65
2022/03/08 01:05:59;;;;;;;18.73;11.00;;;;;;;3.65;45.11;101348.03;5067460;28;20287;-65
2022/03/08 01:08:27;;;;;;;18.77;10.77;;;;;;;3.92;45.02;101348.31;5063195;28;20220;-65
2022/03/08 01:10:55;;;;;;;23.03;9.87;;;;;;;3.85;45.21;101342.56;5063609;28;20240;-65
2022/03/08 01:13:24;;;;;;;20.03;10.23;;;;;;;3.92;45.54;101338.66;5063546;28;20254;-65
2022/03/08 01:15:51;;;;;;;19.60;11.47;;;;;;;3.70;45.86;101340.75;5063541;28;20284;-65
2022/03/08 01:18:19;;;;;;;23.83;10.80;;;;;;;3.88;45.80;101342.38;5062351;28;20390;-64
2022/03/08 01:20:48;;;;;;;23.27;10.03;;;;;;;3.85;45.16;101342.56;5065535;28;20499;-63
2022/03/08 01:23:16;;;;;;;20.70;11.40;;;;;;;4.00;45.04;101333.81;5061990;28;20302;-64
2022/03/08 01:25:44;;;;;;;21.73;10.90;;;;;;;3.81;45.86;101325.28;5062670;28;20266;-64
2022/03/08 01:28:12;;;;;;;17.60;9.80;;;;;;;3.94;45.52;101334.19;5067465;28;20548;-64
2022/03/08 01:30:39;;;;;;;18.40;11.33;;;;;;;3.85;45.40;101324.19;5061788;28;20227;-64
2022/03/08 01:33:07;;;;;;;19.20;11.17;;;;;;;3.75;45.79;101320.38;5063442;28;20208;-63
2022/03/08 01:35:35;;;;;;;19.37;10.73;;;;;;;3.81;45.72;101320.03;5065249;28;20214;-64
2022/03/08 01:38:04;;;;;;;21.33;10.10;;;;;;;3.76;45.62;101314.19;5061691;28;20220;-64
2022/03/08 01:40:32;;;;;;;19.60;10.23;;;;;;;3.86;45.23;101307.53;5064843;28;20273;-63
2022/03/08 01:43:12;;;;;;;19.03;9.73;;;;;;;3.78;45.65;101310.53;5065130;28;20558;-65
2022/03/08 01:45:40;;;;;;;16.37;9.63;;;;;;;3.78;45.34;101294.78;5063444;28;20329;-64
2022/03/08 01:48:08;;;;;;;20.70;10.03;;;;;;;3.67;45.79;101299.81;5064738;28;20219;-64
2022/03/08 01:50:36;;;;;;;18.33;10.10;;;;;;;3.56;45.92;101289.06;5064262;28;20270;-64
2022/03/08 01:53:07;;;;;;;18.30;9.37;;;;;;;3.64;46.09;101293.88;5066069;28;20215;-64
2022/03/08 01:55:35;;;;;;;14.80;9.17;;;;;;;3.58;46.25;101286.34;5064662;28;20207;-64
2022/03/08 01:58:03;;;;;;;16.07;9.53;;;;;;;3.53;46.48;101285.72;5067092;28;20204;-64
2022/03/08 02:00:31;;;;;;;20.63;10.13;;;;;;;3.55;46.31;101289.97;5064431;28;20204;-64
2022/03/08 02:03:00;;;;;;;14.90;8.90;;;;;;;3.59;46.18;101278.41;5065152;28;20746;-64
2022/03/08 02:05:28;;;;;;;20.13;10.83;;;;;;;3.62;46.16;101282.59;5065528;28;20212;-64
2022/03/08 02:07:56;;;;;;;19.30;9.43;;;;;;;3.60;46.38;101276.63;5064208;28;20207;-64
2022/03/08 02:10:25;;;;;;;19.27;9.73;;;;;;;3.50;46.28;101283.28;5064504;28;20342;-63
2022/03/08 02:12:53;;;;;;;16.90;9.40;;;;;;;3.24;46.73;101285.53;5063383;28;20207;-64
2022/03/08 02:15:23;;;;;;;17.43;9.70;;;;;;;3.43;46.48;101281.94;5064336;28;20209;-64
2022/03/08 02:17:55;;;;;;;16.90;9.23;;;;;;;3.41;46.26;101282.03;5062637;28;20633;-64
2022/03/08 02:20:23;;;;;;;15.50;9.03;;;;;;;3.38;46.19;101279.56;5064041;28;20258;-64
2022/03/08 02:22:52;;;;;;;16.47;8.67;;;;;;;3.39;45.97;101279.47;5063300;28;20397;-64
2022/03/08 02:25:23;;;;;;;16.13;8.30;;;;;;;3.42;45.93;101275.00;5064046;28;20290;-64
2022/03/08 02:27:55;;;;;;;16.53;8.23;;;;;;;3.57;45.56;101268.91;5062271;28;20211;-64
2022/03/08 02:30:24;;;;;;;14.20;8.13;;;;;;;2.79;46.95;101269.63;5063636;28;20318;-64
2022/03/08 02:32:53;;;;;;;16.90;8.53;;;;;;;3.32;46.37;101270.25;5061071;28;20303;-64
2022/03/08 02:35:23;;;;;;;14.77;8.20;;;;;;;3.29;46.13;101265.16;5063753;28;20783;-64
2022/03/08 02:37:55;;;;;;;13.80;8.23;;;;;;;3.19;46.25;101269.19;5062516;28;20706;-64
2022/03/08 02:40:26;;;;;;;16.70;9.03;;;;;;;3.29;46.10;101266.94;5060864;28;20319;-64
2022/03/08 02:42:54;;;;;;;14.83;8.37;;;;;;;3.07;46.40;101264.63;5064618;28;20211;-64
2022/03/08 02:45:23;;;;;;;15.10;8.13;;;;;;;3.39;45.46;101263.75;5061505;28;20235;-64
2022/03/08 02:47:54;;;;;;;20.20;8.70;;;;;;;3.36;45.77;101263.91;5064807;28;20203;-64
2022/03/08 02:50:22;;;;;;;16.73;8.63;;;;;;;3.22;45.55;101261.19;5064636;28;20234;-64
2022/03/08 02:52:53;;;;;;;13.50;8.13;;;;;;;3.18;45.98;101272.75;5062820;28;20214;-64
2022/03/08 02:55:24;;;;;;;16.13;8.87;;;;;;;3.16;45.80;101271.16;5062634;28;20222;-64
2022/03/08 02:57:53;;;;;;;15.97;8.43;;;;;;;3.20;45.99;101264.81;5065053;28;20306;-64
2022/03/08 03:00:23;;;;;;;15.50;7.90;;;;;;;3.28;45.50;101257.38;5067581;28;20569;-64
2022/03/08 03:03:08;;;;;;;17.53;8.87;;;;;;;3.23;46.18;101257.63;5068223;28;20326;-64
2022/03/08 03:05:37;;;;;;;15.73;7.50;;;;;;;3.22;45.99;101258.56;5068736;28;20238;-64
2022/03/08 03:08:07;;;;;;;15.00;7.67;;;;;;;3.01;46.77;101264.94;5067167;28;20221;-64
2022/03/08 03:10:37;;;;;;;19.30;8.73;;;;;;;3.08;46.57;101266.28;5068067;28;20227;-64
2022/03/08 03:13:05;;;;;;;14.97;8.50;;;;;;;2.54;48.28;101247.31;5065957;28;20218;-63
2022/03/08 03:15:32;;;;;;;16.90;8.73;;;;;;;2.84;47.46;101263.19;5066988;28;20216;-64
2022/03/08 03:18:00;;;;;;;18.00;8.90;;;;;;;2.95;47.21;101254.78;5068503;28;20847;-65
2022/03/08 03:20:29;;;;;;;16.50;9.27;;;;;;;2.95;47.30;101249.53;5068831;28;20447;-64
2022/03/08 03:22:56;;;;;;;16.27;9.13;;;;;;;2.83;47.57;101240.53;5064805;28;20242;-63
2022/03/08 03:25:26;;;;;;;16.43;8.37;;;;;;;2.96;47.32;101243.38;5071461;28;20688;-63
2022/03/08 03:27:53;;;;;;;20.87;8.87;;;;;;;2.82;48.01;101243.22;5067301;28;20230;-64
2022/03/08 03:30:24;;;;;;;16.30;9.43;;;;;;;2.91;47.31;101248.00;5066630;28;20231;-64
2022/03/08 03:32:51;;;;;;;18.50;9.23;;;;;;;2.75;48.00;101245.34;5064585;28;20204;-64
2022/03/08 03:35:19;;;;;;;15.40;8.60;;;;;;;2.67;47.93;101242.25;5067465;28;20692;-64
2022/03/08 03:37:48;;;;;;;15.63;8.87;;;;;;;2.73;47.80;101238.50;5067751;28;20216;-64
2022/03/08 03:40:16;;;;;;;18.73;8.93;;;;;;;2.88;47.44;101241.16;5070917;28;20286;-64
2022/03/08 03:42:45;;;;;;;17.57;8.83;;;;;;;2.60;48.18;101238.28;5068504;28;20220;-64
2022/03/08 03:45:13;;;;;;;19.17;9.03;;;;;;;2.81;47.72;101236.34;5065948;28;20249;-64
2022/03/08 03:47:41;;;;;;;16.07;8.23;;;;;;;2.73;47.89;101230.66;5069942;28;20556;-64
2022/03/08 03:50:10;;;;;;;17.50;8.60;;;;;;;2.93;47.60;101226.03;5066044;28;20215;-64
2022/03/08 03:52:38;;;;;;;17.03;9.23;;;;;;;2.91;47.29;101224.41;5065362;28;20242;-63
2022/03/08 03:55:11;;;;;;;21.57;8.97;;;;;;;2.79;47.67;101219.84;5068508;28;20269;-63
2022/03/08 03:57:39;;;;;;;18.27;9.10;;;;;;;2.82;47.75;101222.28;5066033;28;20306;-63
2022/03/08 04:00:10;;;;;;;21.03;9.63;;;;;;;2.27;49.44;101219.91;5066579;28;20221;-63
2022/03/08 04:02:38;;;;;;;18.93;9.10;;;;;;;2.73;48.22;101215.75;5066549;28;20214;-63
2022/03/08 04:05:06;;;;;;;18.47;8.60;;;;;;;2.76;48.61;101217.38;5066390;28;20762;-63
2022/03/08 04:07:34;;;;;;;16.67;8.50;;;;;;;2.68;48.49;101211.69;5065609;28;20219;-64
2022/03/08 04:10:02;;;;;;;15.87;8.47;;;;;;;2.44;49.61;101216.44;5065066;28;20207;-64
2022/03/08 04:12:30;;;;;;;15.57;7.53;;;;;;;2.47;49.23;101217.09;5067477;28;20644;-64
2022/03/08 04:14:57;;;;;;;20.17;9.20;;;;;;;2.66;48.71;101214.38;5063395;28;20815;-64
2022/03/08 04:17:26;;;;;;;15.93;7.90;;;;;;;2.68;48.56;101219.53;5067659;28;20330;-64
2022/03/08 04:19:54;;;;;;;16.57;9.03;;;;;;;2.59;48.76;101213.84;5065108;28;20307;-64
2022/03/08 04:22:22;;;;;;;13.00;7.83;;;;;;;2.70;48.47;101209.84;5066074;28;20361;-63
2022/03/08 04:24:50;;;;;;;15.57;7.83;;;;;;;2.76;48.43;101223.47;5064442;28;20216;-64
2022/03/08 04:27:18;;;;;;;12.57;7.17;;;;;;;2.84;48.24;101220.44;5066187;28;20703;-64
2022/03/08 04:29:45;;;;;;;15.30;8.50;;;;;;;2.83;48.39;101219.59;5064776;28;20208;-64
2022/03/08 04:32:13;;;;;;;20.67;9.00;;;;;;;2.60;48.65;101222.56;5070720;28;20783;-64
2022/03/08 04:34:42;;;;;;;14.07;7.57;;;;;;;2.70;48.50;101228.19;5064336;28;20299;-64
2022/03/08 04:37:10;;;;;;;15.47;7.23;;;;;;;2.70;48.45;101222.94;5065648;28;20307;-63
2022/03/08 04:39:38;;;;;;;16.70;7.90;;;;;;;2.62;48.71;101226.81;5066586;28;20336;-64
2022/03/08 04:42:06;;;;;;;17.33;7.30;;;;;;;2.25;49.44;101237.44;5065636;28;20563;-64
2022/03/08 04:44:33;;;;;;;18.53;8.43;;;;;;;2.49;49.05;101230.13;5065455;28;20219;-64
2022/03/08 04:47:01;;;;;;;13.33;7.20;;;;;;;2.48;48.84;101224.03;5065983;28;20231;-64
2022/03/08 04:49:29;;;;;;;14.97;7.63;;;;;;;2.45;48.99;101225.97;5062934;28;20598;-64
2022/03/08 04:51:58;;;;;;;14.97;7.30;;;;;;;2.54;48.76;101222.88;5067839;28;20595;-64
2022/03/08 04:54:26;;;;;;;15.53;7.97;;;;;;;2.44;48.67;101230.38;5067604;28;20210;-64
2022/03/08 04:56:53;;;;;;;15.03;8.27;;;;;;;2.51;48.93;101230.91;5065417;28;20314;-64
2022/03/08 04:59:21;;;;;;;14.80;7.40;;;;;;;2.62;48.55;101231.19;5069100;28;20509;-64
2022/03/08 05:01:49;;;;;;;16.37;8.37;;;;;;;2.57;48.57;101235.81;5066168;28;20340;-64
2022/03/08 05:04:17;;;;;;;14.87;7.90;;;;;;;2.43;49.27;101233.91;5064152;28;20222;-64
2022/03/08 05:06:45;;;;;;;16.73;8.23;;;;;;;2.57;48.68;101228.78;5067614;28;20672;-64
2022/03/08 05:09:14;;;;;;;15.00;8.00;;;;;;;2.65;48.34;101231.03;5066950;28;20755;-64
2022/03/08 05:11:42;;;;;;;19.13;8.40;;;;;;;2.73;48.47;101217.56;5061612;28;20572;-63
2022/03/08 05:14:10;;;;;;;15.77;8.50;;;;;;;2.67;48.44;101223.94;5066405;28;20243;-63
2022/03/08 05:16:38;;;;;;;11.43;7.10;;;;;;;2.67;48.61;101218.69;5062962;28;20215;-63
2022/03/08 05:19:12;;;;;;;17.70;8.57;;;;;;;2.63;48.81;101219.81;5064746;28;20207;-64
2022/03/08 05:21:40;;;;;;;14.47;8.17;;;;;;;2.42;49.54;101219.13;5064256;28;20567;-63
2022/03/08 05:24:07;;;;;;;19.30;9.40;;;;;;;2.50;49.37;101216.94;5066950;28;20330;-64
2022/03/08 05:26:37;;;;;;;14.37;8.00;;;;;;;2.49;49.64;101207.41;5064010;28;20925;-63
2022/03/08 05:29:05;;;;;;;15.87;8.27;;;;;;;2.38;50.24;101206.25;5065642;28;20207;-64
2022/03/08 05:31:33;;;;;;;15.63;8.40;;;;;;;2.52;49.39;101204.63;5066919;28;20310;-64
2022/03/08 05:34:01;;;;;;;17.63;8.50;;;;;;;2.37;49.88;101210.66;5063670;28;20215;-64
2022/03/08 05:36:28;;;;;;;17.57;9.07;;;;;;;2.19;50.37;101206.34;5065356;28;20246;-64
2022/03/08 05:38:56;;;;;;;17.70;8.23;;;;;;;2.46;49.75;101207.53;5064041;28;20290;-63
2022/03/08 05:41:24;;;;;;;20.40;8.27;;;;;;;2.41;49.94;101204.34;5065238;28;20318;-66
2022/03/08 05:43:55;;;;;;;15.43;8.67;;;;;;;2.46;49.83;101199.69;5066076;28;20215;-64
2022/03/08 05:46:25;;;;;;;14.57;7.23;;;;;;;2.50;49.51;101195.16;5064159;28;20242;-64
2022/03/08 05:48:55;;;;;;;16.10;8.10;;;;;;;2.48;49.71;101197.00;5063845;28;20810;-63
2022/03/08 05:51:23;;;;;;;14.13;8.47;;;;;;;2.47;49.66;101201.38;5065158;28;20207;-63
2022/03/08 05:53:52;;;;;;;18.70;9.67;;;;;;;2.41;49.83;101201.72;5064577;28;20213;-63
2022/03/08 05:56:22;;;;;;;22.57;9.63;;;;;;;1.84;51.07;101195.03;5064404;28;20223;-64
2022/03/08 05:58:54;;;;;;;23.03;10.50;;;;;;;2.05;50.52;101198.31;5066519;28;20210;-64
2022/03/08 06:01:24;;;;;;;23.83;11.27;;;;;;;1.99;50.93;101198.66;5060104;28;20208;-63
2022/03/08 06:03:52;;;;;;;22.03;9.57;;;;;;;2.25;50.13;101206.88;5063565;28;20211;-63
2022/03/08 06:06:19;;;;;;;25.57;10.20;;;;;;;2.35;49.97;101220.34;5064664;28;20215;-64
2022/03/08 06:08:49;;;;;;;18.37;9.07;;;;;;;1.97;51.06;101219.63;5061223;28;20217;-62
2022/03/08 06:11:23;;;;;;;21.37;8.50;;;;;;;1.92;51.33;101228.66;5063211;28;20570;-64
2022/03/08 06:13:53;;;;;;;15.23;7.93;;;;;;;2.18;50.53;101230.81;5062832;28;20340;-64
2022/03/08 06:16:25;;;;;;;17.03;7.87;;;;;;;2.39;50.04;101242.81;5062289;28;20306;-64
2022/03/08 06:18:58;;;;;;;15.07;8.00;;;;;;;2.36;49.79;101245.63;5064699;28;20638;-63
2022/03/08 06:21:32;;;;;;;16.47;8.60;;;;;;;2.29;49.98;101249.44;5063397;28;20230;-63
2022/03/08 06:24:02;;;;;;;20.53;8.37;;;;;;;2.42;49.79;101245.28;5063038;28;20215;-63
2022/03/08 06:26:34;;;;;;;20.27;8.70;;;;;;;2.29;50.07;101259.91;5063054;28;20277;-65
2022/03/08 06:29:05;;;;;;;16.93;8.87;;;;;;;2.32;50.40;101248.44;5065458;28;20215;-64
2022/03/08 06:31:35;;;;;;;18.40;8.77;;;;;;;2.28;50.36;101253.00;5063075;28;20212;-64
2022/03/08 06:34:04;;;;;;;21.37;8.17;;;;;;;2.27;50.57;101264.41;5064825;28;20200;-64
2022/03/08 06:36:34;;;;;;;14.33;8.50;;;;;;;2.36;50.34;101266.56;5064535;28;20275;-64
2022/03/08 06:39:06;;;;;;;17.50;8.53;;;;;;;2.17;51.02;101271.00;5062488;28;20246;-64
2022/03/08 06:41:33;;;;;;;19.15;11.10;;;;;;;2.33;50.80;101260.63;5064199;28;20452;-58
2022/03/08 06:44:01;;;;;;;17.23;9.47;;;;;;;2.52;49.94;101275.31;5062972;28;20207;-61
2022/03/08 06:46:29;;;;;;;18.03;9.33;;;;;;;2.47;50.23;101268.59;5060400;28;20245;-58
2022/03/08 06:48:57;;;;;;;19.10;9.57;;;;;;;2.63;49.76;101265.16;5070688;28;20393;-59
2022/03/08 06:51:26;;;;;;;16.83;8.10;;;;;;;2.73;49.82;101264.69;5065077;28;20208;-61
2022/03/08 06:53:54;;;;;;;16.30;8.43;;;;;;;2.61;50.26;101277.47;5062967;28;20231;-61
2022/03/08 06:56:22;;;;;;;24.83;8.47;;;;;;;2.72;49.96;101274.31;5063384;28;20615;-61
2022/03/08 06:59:05;;;;;;;17.60;8.67;;;;;;;2.47;50.23;101274.69;5065394;28;20326;-56
2022/03/08 07:01:32;;;;;;;17.23;8.37;;;;;;;2.73;49.82;101281.22;5062094;28;20203;-60
2022/03/08 07:04:00;;;;;;;19.23;8.70;;;;;;;2.77;49.95;101277.53;5064903;28;20254;-59
2022/03/08 07:06:29;;;;;;;17.73;9.27;;;;;;;2.78;50.24;101268.75;5064655;28;20313;-60
2022/03/08 07:08:58;;;;;;;16.07;8.13;;;;;;;2.95;49.89;101267.88;5058352;28;20211;-60
2022/03/08 07:11:26;;;;;;;18.03;8.63;;;;;;;2.95;50.08;101270.50;5065330;28;20211;-61
2022/03/08 07:13:54;;;;;;;17.63;8.73;;;;;;;3.10;49.70;101261.81;5064628;28;20334;-60
2022/03/08 07:16:21;;;;;;;18.03;8.50;;;;;;;3.14;49.69;101266.00;5062688;28;20211;-60
2022/03/08 07:18:49;;;;;;;21.10;9.10;;;;;;;2.99;50.58;101266.81;5069305;28;20257;-58
2022/03/08 07:21:17;;;;;;;19.87;8.90;;;;;;;2.97;50.61;101268.66;5064662;28;20692;-61
2022/03/08 07:23:46;;;;;;;21.87;9.13;;;;;;;3.12;50.55;101267.84;5066171;28;20453;-60
2022/03/08 07:26:14;;;;;;;15.30;8.80;;;;;;;3.28;49.93;101266.09;5066244;28;20755;-61
2022/03/08 07:28:42;;;;;;;26.17;9.47;;;;;;;3.32;50.35;101272.88;5062572;28;20856;-61
2022/03/08 07:31:12;;;;;;;23.77;10.43;;;;;;;3.40;50.25;101270.69;5063476;28;20207;-59
2022/03/08 07:33:40;;;;;;;19.67;9.00;;;;;;;3.43;50.65;101279.31;5064369;28;20245;-60
2022/03/08 07:36:08;;;;;;;19.33;9.37;;;;;;;3.53;50.46;101275.25;5058612;28;20244;-58
2022/03/08 07:38:36;;;;;;;22.37;8.87;;;;;;;3.60;50.15;101274.00;5066096;28;20220;-59
2022/03/08 07:41:06;;;;;;;15.57;8.90;;;;;;;3.38;51.01;101267.28;5068130;28;20211;-60
2022/03/08 07:43:40;;;;;;;17.43;9.83;;;;;;;3.62;50.87;101267.72;5066549;28;20306;-61
2022/03/08 07:46:09;;;;;;;18.23;9.77;;;;;;;3.81;49.98;101275.44;5065054;28;20700;-60
2022/03/08 07:48:38;;;;;;;17.97;8.63;;;;;;;3.93;50.01;101259.00;5068074;28;20337;-59
2022/03/08 07:51:07;;;;;;;16.77;8.83;;;;;;;3.93;50.26;101261.63;5067974;28;20290;-59
2022/03/08 07:53:35;;;;;;;15.27;9.23;;;;;;;3.99;49.91;101266.53;5065195;28;20307;-59
2022/03/08 07:56:02;;;;;;;21.27;8.80;;;;;;;4.11;49.53;101265.84;5071015;28;20303;-61
2022/03/08 07:58:31;;;;;;;15.90;8.80;;;;;;;4.24;49.31;101270.38;5066070;28;20309;-59
2022/03/08 08:00:59;;;;;;;16.03;8.33;;;;;;;4.30;48.93;101268.25;5067428;28;20513;-60
2022/03/08 08:03:28;;;;;;;18.03;8.40;;;;;;;4.33;49.08;101264.59;5066390;28;20216;-61
2022/03/08 08:05:56;;;;;;;19.23;8.40;;;;;;;4.47;48.34;101277.78;5066536;28;20248;-59
2022/03/08 08:08:24;;;;;;;16.73;9.03;;;;;;;4.59;48.11;101279.66;5068091;28;20218;-61
2022/03/08 08:11:00;;;;;;;17.27;8.87;;;;;;;4.65;48.09;101275.84;5068410;28;20607;-59
2022/03/08 08:13:28;;;;;;;16.53;9.40;;;;;;;4.73;48.09;101268.34;5063209;28;20307;-61
2022/03/08 08:15:58;;;;;;;14.47;9.00;;;;;;;4.84;47.33;101269.38;5066519;28;20596;-61
2022/03/08 08:18:26;;;;;;;17.77;9.07;;;;;;;5.19;47.37;101259.34;5066806;28;20210;-62
2022/03/08 08:20:53;;;;;;;18.10;8.07;;;;;;;9.31;39.24;101259.31;5066446;28;20231;-62
2022/03/08 08:23:21;;;;;;;18.97;9.20;;;;;;;9.58;37.32;101258.94;5067272;28;20662;-61
2022/03/08 08:25:49;;;;;;;17.57;8.70;;;;;;;12.81;32.49;101263.53;5068830;28;20712;-61
2022/03/08 08:28:17;;;;;;;18.13;8.80;;;;;;;11.23;34.38;101264.56;5065756;28;20346;-61
2022/03/08 08:30:44;;;;;;;19.63;8.77;;;;;;;10.73;34.48;101260.94;5068768;28;20208;-60
2022/03/08 08:33:14;;;;;;;16.30;8.97;;;;;;;11.30;34.11;101263.03;5066125;28;20278;-62
2022/03/08 08:35:41;;;;;;;13.40;8.13;;;;;;;13.97;29.72;101258.56;5064184;28;20221;-59
2022/03/08 08:38:09;;;;;;;15.20;9.37;;;;;;;13.31;30.22;101245.44;5065939;28;20239;-61
2022/03/08 08:40:37;;;;;;;14.73;8.47;;;;;;;13.75;29.20;101251.81;5067963;28;20222;-61
2022/03/08 08:43:06;;;;;;;15.90;8.20;;;;;;;15.31;27.71;101255.56;5059209;28;20289;-61
2022/03/08 08:45:34;;;;;;;12.63;8.40;;;;;;;13.33;29.71;101245.31;5066705;28;20609;-62
2022/03/08 08:48:03;;;;;;;12.37;8.07;;;;;;;15.16;27.38;101250.00;5065510;28;20219;-62
2022/03/08 08:50:32;;;;;;;14.90;8.33;;;;;;;15.54;27.21;101245.19;5064908;28;20259;-61
2022/03/08 08:53:00;;;;;;;14.50;8.90;;;;;;;13.68;28.82;101248.06;5066561;28;20234;-63
2022/03/08 08:55:27;;;;;;;10.30;7.93;;;;;;;14.50;28.63;101245.25;5065522;28;20561;-62
2022/03/08 08:57:55;;;;;;;12.60;7.77;;;;;;;14.80;27.65;101243.94;5063672;28;20636;-61
2022/03/08 09:00:23;;;;;;;10.20;7.87;;;;;;;16.93;25.06;101246.00;5067418;28;20214;-61
2022/03/08 09:02:52;;;;;;;14.33;8.60;;;;;;;17.77;24.45;101235.66;5062621;28;20207;-60
2022/03/08 09:05:20;;;;;;;10.00;8.27;;;;;;;14.88;27.61;101240.47;5070410;28;20644;-61
2022/03/08 09:07:49;;;;;;;11.70;7.80;;;;;;;15.31;27.52;101251.06;5068911;28;20274;-60
2022/03/08 09:10:19;;;;;;;11.17;7.87;;;;;;;17.35;24.86;101247.56;5072119;28;20217;-62
2022/03/08 09:12:49;;;;;;;13.57;7.80;;;;;;;17.96;23.84;101235.22;5059991;28;20215;-62
2022/03/08 09:15:17;;;;;;;9.43;7.60;;;;;;;18.46;22.91;101239.22;5072695;28;20211;-61
2022/03/08 09:17:45;;;;;;;11.20;7.28;;;;;;;22.58;19.38;101230.59;5062350;28;20550;-62
2022/03/08 09:20:13;;;;;;;11.05;7.97;;;;;;;24.86;17.34;101224.53;5062403;28;20310;-63
2022/03/08 09:22:48;;;;;;;9.77;7.82;;;;;;;25.43;16.75;101223.28;5068209;28;20226;-63
2022/03/08 09:25:16;;;;;;;9.75;7.25;;;;;;;25.86;16.42;101218.56;5069693;28;20239;-62
2022/03/08 09:27:44;;;;;;;9.52;7.32;;;;;;;20.22;20.65;101218.44;5065780;28;20588;-62
2022/03/08 09:30:12;;;;;;;9.95;7.70;;;;;;;19.87;20.85;101219.34;5064159;28;20294;-61
2022/03/08 09:32:40;;;;;;;10.57;7.40;;;;;;;19.26;21.79;101223.31;5064324;28;20668;-63
2022/03/08 09:35:08;;;;;;;15.30;8.27;;;;;;;18.98;22.56;101218.59;5066245;28;20626;-63
2022/03/08 09:37:36;;;;;;;15.98;7.70;;;;;;;20.08;21.35;101210.41;5066725;28;20626;-64
2022/03/08 09:40:06;;;;;;;9.60;7.47;;;;;;;20.51;21.20;101217.47;5066039;28;20219;-63
2022/03/08 09:42:34;;;;;;;10.38;7.68;;;;;;;25.28;17.21;101203.84;5064950;28;20294;-63
2022/03/08 09:45:02;;;;;;;11.93;8.40;;;;;;;24.67;17.70;101208.25;5064844;28;20264;-64
2022/03/08 09:47:36;;;;;;;10.10;7.28;;;;;;;20.54;20.48;101200.94;5065053;28;20221;-63
2022/03/08 09:50:04;;;;;;;10.23;7.75;;;;;;;22.29;19.47;101196.72;5063737;28;20211;-61
2022/03/08 09:52:36;;;;;;;10.70;8.27;;;;;;;23.32;18.45;101186.97;5065612;28;20297;-60
2022/03/08 09:55:07;;;;;;;10.40;7.60;;;;;;;22.39;19.28;101185.50;5066303;28;20241;-61
2022/03/08 09:57:34;;;;;;;9.82;7.50;;;;;;;20.58;20.54;101191.41;5064536;28;20224;-60
2022/03/08 10:00:04;;;;;;;11.48;7.25;;;;;;;20.86;20.79;101183.31;5066247;28;20207;-60
2022/03/08 10:02:43;;;;;;;10.65;7.57;;;;;;;25.45;16.95;101172.31;5065194;28;20215;-62
2022/03/08 10:05:13;;;;;;;9.27;6.90;;;;;;;26.87;15.28;101182.22;5062432;28;20215;-61
2022/03/08 10:08:07;;;;;;;17.10;11.43;;;;;;;27.22;15.28;101170.47;5065935;28;20672;-61
2022/03/08 10:10:53;;;;;;;9.60;6.80;;;;;;;29.26;13.85;101167.34;5067805;28;20532;-62
2022/03/08 10:13:24;;;;;;;10.88;5.80;;;;;;;28.08;13.71;101170.19;5062900;28;20214;-61
2022/03/08 10:16:08;;;;;;;8.82;5.72;;;;;;;24.16;16.05;101170.50;5065651;28;20621;-61
2022/03/08 10:18:38;;;;;;;8.88;5.50;;;;;;;19.98;19.07;101173.03;5066561;28;20207;-62
2022/03/08 10:21:25;;;;;;;10.02;6.30;;;;;;;20.98;19.23;101172.81;5064459;28;20273;-60
2022/03/08 10:23:56;;;;;;;7.65;6.60;;;;;;;19.05;19.95;101160.38;5061843;28;20492;-61
2022/03/08 10:26:26;;;;;;;8.48;5.60;;;;;;;19.66;19.68;101155.53;5065636;28;20318;-63
2022/03/08 10:29:05;;;;;;;9.00;5.65;;;;;;;20.17;19.74;101155.41;5067116;28;20238;-61
2022/03/08 10:31:33;;;;;;;7.50;4.75;;;;;;;23.37;16.75;101141.19;5061127;28;20257;-62
2022/03/08 10:34:06;;;;;;;7.90;4.00;;;;;;;23.78;15.92;101142.63;5064389;28;20242;-62
2022/03/08 10:36:36;;;;;;;5.95;3.90;;;;;;;21.37;17.47;101142.53;5063305;28;20216;-63
2022/03/08 10:39:15;;;;;;;15.55;4.13;;;;;;;26.30;15.35;101132.19;5066414;28;20286;-61
2022/03/08 10:41:52;;;;;;;5.10;3.55;;;;;;;25.53;14.33;101139.41;5068139;28;20221;-62
2022/03/08 10:44:38;;;;;;;6.40;3.88;;;;;;;24.16;15.31;101146.09;5063507;28;20209;-63
2022/03/08 10:47:09;;;;;;;5.97;3.30;;;;;;;23.14;16.24;101133.56;5064645;28;21935;-62
2022/03/08 10:49:52;;;;;;;4.50;3.50;;;;;;;22.35;16.50;101141.00;5074167;28;20403;-62
2022/03/08 10:52:27;;;;;;;4.80;3.50;;;;;;;18.27;19.46;101139.34;5067175;28;20254;-63
2022/03/08 10:54:55;;;;;;;7.13;3.80;;;;;;;17.48;20.49;101135.25;5058257;28;20225;-63
2022/03/08 10:57:33;;;;;;;7.55;4.05;;;;;;;20.43;18.42;101128.72;5065765;28;20313;-64
2022/03/08 11:00:15;;;;;;;5.63;4.20;;;;;;;18.21;19.76;101115.06;5067652;28;20222;-63
2022/03/08 11:02:49;;;;;;;4.68;3.90;;;;;;;20.05;18.39;101119.28;5064756;28;20306;-63
2022/03/08 11:05:18;;;;;;;6.82;3.65;;;;;;;21.42;17.02;101118.47;5062485;28;20250;-64
2022/03/08 11:07:47;;;;;;;4.55;3.47;;;;;;;17.36;20.01;101117.88;5065379;28;20208;-63
2022/03/08 11:10:16;;;;;;;5.55;4.13;;;;;;;14.79;22.44;101123.94;5062536;28;20235;-63
2022/03/08 11:12:47;;;;;;;6.88;3.55;;;;;;;15.32;22.38;101112.94;5065866;28;20208;-64
2022/03/08 11:15:18;;;;;;;6.18;3.33;;;;;;;14.80;22.81;101121.13;5067557;28;20255;-63
2022/03/08 11:17:48;;;;;;;7.80;4.00;;;;;;;14.68;23.30;101112.56;5062882;28;20225;-63
2022/03/08 11:20:17;;;;;;;7.20;4.05;;;;;;;15.23;22.75;101114.78;5062897;28;20298;-64
2022/03/08 11:22:46;;;;;;;9.07;4.38;;;;;;;16.76;20.81;101102.44;5067029;28;20211;-63
2022/03/08 11:25:16;;;;;;;6.95;4.20;;;;;;;19.41;19.20;101105.78;5067256;28;20771;-63
2022/03/08 11:28:07;;;;;;;8.88;5.20;;;;;;;19.11;19.85;101100.47;5066923;28;20238;-63
2022/03/08 11:30:41;;;;;;;9.25;5.28;;;;;;;17.07;21.04;101107.81;5070686;28;20783;-62
2022/03/08 11:33:13;;;;;;;9.75;4.90;;;;;;;17.27;21.77;101092.97;5067863;28;20245;-60